createdAt,value
2022-12-24T00:00:39.658Z,100
2022-12-24T00:01:55.954Z,100
2022-12-24T00:03:12.244Z,100
2022-12-24T00:04:28.548Z,99.8
2022-12-24T00:05:44.837Z,99.8
2022-12-24T00:07:01.124Z,99.5
2022-12-24T00:08:17.417Z,99.3
2022-12-24T00:09:33.703Z,99.2
2022-12-24T00:10:49.008Z,99.1
2022-12-24T00:12:05.306Z,98.9
2022-12-24T00:13:21.593Z,98.9
2022-12-24T00:14:37.897Z,98.9
2022-12-24T00:15:54.199Z,98.8
2022-12-24T00:17:10.479Z,98.8
2022-12-24T00:18:26.768Z,98.7
2022-12-24T00:19:43.067Z,98.6
2022-12-24T00:20:59.355Z,98.4
2022-12-24T00:22:15.659Z,98.4
2022-12-24T00:23:31.936Z,98.3
2022-12-24T00:24:48.234Z,98.2
2022-12-24T00:26:04.529Z,98.3
2022-12-24T00:27:19.849Z,98.1
2022-12-24T00:28:36.128Z,98.3
2022-12-24T00:29:52.438Z,97.9
2022-12-24T00:31:08.716Z,97.8
2022-12-24T00:32:25.012Z,98.1
2022-12-24T00:33:41.302Z,98.8
2022-12-24T00:34:57.601Z,99.2
2022-12-24T00:36:13.899Z,99.3
2022-12-24T00:37:30.178Z,99.8
2022-12-24T00:38:46.478Z,99.7
2022-12-24T00:40:02.760Z,100
2022-12-24T00:41:19.067Z,99.8
2022-12-24T00:42:35.353Z,99.8
2022-12-24T00:43:50.665Z,100
2022-12-24T00:45:06.951Z,99.7
2022-12-24T00:46:23.255Z,99.8
2022-12-24T00:47:39.542Z,99.8
2022-12-24T00:48:55.842Z,99.8
2022-12-24T00:50:12.126Z,100
2022-12-24T00:51:28.426Z,99.8
2022-12-24T00:52:44.704Z,99.8
2022-12-24T00:54:01.010Z,99.8
2022-12-24T00:55:17.307Z,100
2022-12-24T00:56:33.598Z,100
2022-12-24T00:57:49.893Z,100
2022-12-24T00:59:06.185Z,100
2022-12-24T01:00:21.480Z,100
2022-12-24T01:01:37.783Z,99.9
2022-12-24T01:02:54.072Z,99.8
2022-12-24T01:04:10.362Z,99.7
2022-12-24T01:05:26.654Z,99.5
2022-12-24T01:06:42.957Z,98.7
2022-12-24T01:07:59.241Z,98.6
2022-12-24T01:09:15.540Z,98.4
2022-12-24T01:10:31.820Z,97.8
2022-12-24T01:11:48.114Z,97.5
2022-12-24T01:13:04.415Z,97.7
2022-12-24T01:14:20.710Z,97.6
2022-12-24T01:15:36.988Z,97.4
2022-12-24T01:16:52.306Z,97.2
2022-12-24T01:18:08.599Z,97.1
2022-12-24T01:19:24.896Z,96.9
2022-12-24T01:20:41.177Z,97.1
2022-12-24T01:21:57.477Z,97.1
2022-12-24T01:23:13.761Z,96.9
2022-12-24T01:24:30.060Z,96.6
2022-12-24T01:25:46.346Z,96.2
2022-12-24T01:27:02.655Z,96
2022-12-24T01:28:18.950Z,95.7
2022-12-24T01:29:35.223Z,95.7
2022-12-24T01:30:51.524Z,95.7
2022-12-24T01:32:07.815Z,95.9
2022-12-24T01:33:23.138Z,96
2022-12-24T01:34:39.415Z,96.2
2022-12-24T01:35:55.723Z,96
2022-12-24T01:37:12.000Z,96.2
2022-12-24T01:38:28.307Z,96.3
2022-12-24T01:39:44.595Z,96.6
2022-12-24T01:41:00.890Z,96.6
2022-12-24T01:42:17.167Z,96.9
2022-12-24T01:43:33.475Z,96.7
2022-12-24T01:44:49.760Z,97
2022-12-24T01:46:06.048Z,96.8
2022-12-24T01:47:22.339Z,96.9
2022-12-24T01:48:38.647Z,97.1
2022-12-24T01:49:53.960Z,96.9
2022-12-24T01:51:10.247Z,97
2022-12-24T01:52:26.539Z,97.2
2022-12-24T01:53:42.828Z,96.9
2022-12-24T01:54:59.123Z,97.4
2022-12-24T01:56:15.424Z,97
2022-12-24T01:57:31.716Z,96.9
2022-12-24T01:58:48.001Z,96.8
2022-12-24T02:00:04.289Z,96.4
2022-12-24T02:01:20.596Z,96.2
2022-12-24T02:02:36.887Z,96.4
2022-12-24T02:03:53.165Z,96.2
2022-12-24T02:05:09.458Z,96.3
2022-12-24T02:06:24.783Z,96.1
2022-12-24T02:07:41.058Z,96.5
2022-12-24T02:08:57.361Z,96.3
2022-12-24T02:10:13.645Z,96
2022-12-24T02:11:29.951Z,95.9
2022-12-24T02:12:46.241Z,96
2022-12-24T02:14:02.526Z,96
2022-12-24T02:15:18.830Z,96.4
2022-12-24T02:16:35.111Z,97
2022-12-24T02:17:51.412Z,97.4
2022-12-24T02:19:07.711Z,97.8
2022-12-24T02:20:23.997Z,98
2022-12-24T02:21:40.292Z,98.3
2022-12-24T02:22:55.587Z,98.3
2022-12-24T02:24:11.888Z,98.7
2022-12-24T02:25:28.183Z,98.3
2022-12-24T02:26:44.468Z,98.1
2022-12-24T02:29:17.067Z,97.3
2022-12-24T02:30:33.347Z,97.4
2022-12-24T02:31:49.644Z,97.2
2022-12-24T02:33:05.941Z,96.5
2022-12-24T02:34:22.235Z,96.5
2022-12-24T02:35:38.527Z,96.3
2022-12-24T02:36:54.826Z,96.5
2022-12-24T02:38:11.120Z,95.9
2022-12-24T02:39:26.411Z,95.9
2022-12-24T02:40:42.720Z,95.7
2022-12-24T02:41:59.005Z,95.8
2022-12-24T02:43:15.303Z,95.7
2022-12-24T02:44:31.581Z,95.4
2022-12-24T02:45:47.878Z,95.3
2022-12-24T02:47:04.000Z,95
2022-12-24T02:48:20.462Z,94.9
2022-12-24T02:49:36.760Z,94.9
2022-12-24T02:50:53.065Z,94.8
2022-12-24T02:52:09.352Z,95
2022-12-24T02:53:25.650Z,94.8
2022-12-24T02:54:41.925Z,94.8
2022-12-24T02:55:57.243Z,94.7
2022-12-24T02:57:13.540Z,94.8
2022-12-24T02:58:29.823Z,95
2022-12-24T02:59:46.117Z,94.4
2022-12-24T03:01:02.422Z,94
2022-12-24T03:02:18.718Z,94
2022-12-24T03:03:35.005Z,94.4
2022-12-24T03:04:51.286Z,94.1
2022-12-24T03:06:07.589Z,94.1
2022-12-24T03:07:23.872Z,93.7
2022-12-24T03:08:40.181Z,93.5
2022-12-24T03:09:56.467Z,93.3
2022-12-24T03:11:12.768Z,92.9
2022-12-24T03:12:28.075Z,92.7
2022-12-24T03:13:44.353Z,92.8
2022-12-24T03:15:00.657Z,92.8
2022-12-24T03:16:16.937Z,92.4
2022-12-24T03:17:33.237Z,92
2022-12-24T03:18:49.537Z,92.4
2022-12-24T03:20:05.823Z,91.7
2022-12-24T03:21:22.105Z,91.4
2022-12-24T03:22:38.402Z,91.6
2022-12-24T03:23:54.699Z,91.3
2022-12-24T03:25:10.995Z,90.7
2022-12-24T03:26:27.280Z,91
2022-12-24T03:27:43.570Z,90.5
2022-12-24T03:28:58.883Z,90.6
2022-12-24T03:30:15.179Z,90.3
2022-12-24T03:31:31.480Z,90.2
2022-12-24T03:32:47.772Z,90.3
2022-12-24T03:34:04.056Z,90.1
2022-12-24T03:35:20.349Z,90.2
2022-12-24T03:36:36.650Z,90.5
2022-12-24T03:37:52.943Z,90.3
2022-12-24T03:39:09.222Z,90.1
2022-12-24T03:40:25.520Z,90.3
2022-12-24T03:41:41.811Z,90.3
2022-12-24T03:42:58.110Z,90.5
2022-12-24T03:44:14.394Z,90.3
2022-12-24T03:45:29.705Z,90
2022-12-24T03:46:46.001Z,90.5
2022-12-24T03:48:02.291Z,90.1
2022-12-24T03:49:18.583Z,90.3
2022-12-24T03:50:34.886Z,90.5
2022-12-24T03:51:51.181Z,90.5
2022-12-24T03:53:06.497Z,90.5
2022-12-24T03:54:22.777Z,90.7
2022-12-24T03:55:39.077Z,90.3
2022-12-24T03:56:55.371Z,90.3
2022-12-24T03:58:11.655Z,89.6
2022-12-24T03:59:27.948Z,89.6
2022-12-24T04:00:44.254Z,89.7
2022-12-24T04:02:00.544Z,89.9
2022-12-24T04:03:16.833Z,89.9
2022-12-24T04:04:33.114Z,90.1
2022-12-24T04:05:49.409Z,90
2022-12-24T04:07:05.717Z,89.9
2022-12-24T04:08:22.002Z,89.6
2022-12-24T04:09:37.317Z,90.1
2022-12-24T04:10:53.598Z,89.9
2022-12-24T04:12:09.905Z,90
2022-12-24T04:13:26.197Z,89.6
2022-12-24T04:14:42.489Z,89.5
2022-12-24T04:15:58.778Z,89.9
2022-12-24T04:17:15.073Z,89.6
2022-12-24T04:18:31.363Z,89.9
2022-12-24T04:19:47.651Z,89.6
2022-12-24T04:21:03.947Z,89.6
2022-12-24T04:22:20.248Z,89.5
2022-12-24T04:23:36.523Z,89.6
2022-12-24T04:24:52.824Z,89.6
2022-12-24T04:26:08.122Z,89.4
2022-12-24T04:27:24.425Z,89.5
2022-12-24T04:28:40.724Z,89.3
2022-12-24T04:29:57.006Z,89.5
2022-12-24T04:31:13.308Z,89.6
2022-12-24T04:32:29.598Z,89.5
2022-12-24T04:33:45.882Z,89.3
2022-12-24T04:35:02.190Z,89.5
2022-12-24T04:36:18.467Z,89.4
2022-12-24T04:37:34.761Z,89.1
2022-12-24T04:38:51.055Z,89.3
2022-12-24T04:40:07.346Z,89.2
2022-12-24T04:41:23.645Z,89.5
2022-12-24T04:42:38.962Z,89.5
2022-12-24T04:43:55.243Z,89.3
2022-12-24T04:45:11.545Z,89.1
2022-12-24T04:46:27.844Z,89
2022-12-24T04:47:44.119Z,89.1
2022-12-24T04:49:00.413Z,88.9
2022-12-24T04:50:16.721Z,88.8
2022-12-24T04:51:33.011Z,88.5
2022-12-24T04:52:49.287Z,88.1
2022-12-24T04:54:05.598Z,87.7
2022-12-24T04:55:21.892Z,87.8
2022-12-24T04:56:38.178Z,87.3
2022-12-24T04:57:54.462Z,87.3
2022-12-24T04:59:09.785Z,87.2
2022-12-24T05:00:26.077Z,86.9
2022-12-24T05:01:42.368Z,86.9
2022-12-24T05:02:58.658Z,87.4
2022-12-24T05:04:14.940Z,87.3
2022-12-24T05:05:31.235Z,87.6
2022-12-24T05:06:47.543Z,87.6
2022-12-24T05:08:03.826Z,87.3
2022-12-24T05:10:36.404Z,87.8
2022-12-24T05:11:52.703Z,87.8
2022-12-24T05:13:09.002Z,87.7
2022-12-24T05:14:25.292Z,87.7
2022-12-24T05:15:40.596Z,87.2
2022-12-24T05:16:56.898Z,87.7
2022-12-24T05:18:13.190Z,87.6
2022-12-24T05:19:29.470Z,87.3
2022-12-24T05:20:45.772Z,87.6
2022-12-24T05:22:02.058Z,87.1
2022-12-24T05:23:18.359Z,87.1
2022-12-24T05:24:34.641Z,87
2022-12-24T05:25:50.931Z,87.2
2022-12-24T05:27:07.225Z,86.8
2022-12-24T05:28:23.525Z,86.6
2022-12-24T05:29:39.810Z,86.8
2022-12-24T05:30:56.117Z,86.9
2022-12-24T05:32:11.415Z,86.7
2022-12-24T05:33:27.714Z,86.6
2022-12-24T05:34:43.997Z,86.2
2022-12-24T05:36:00.302Z,86.3
2022-12-24T05:37:16.586Z,86.4
2022-12-24T05:38:32.877Z,86.5
2022-12-24T05:39:49.187Z,86.4
2022-12-24T05:41:05.466Z,86.5
2022-12-24T05:42:21.754Z,86.8
2022-12-24T05:43:38.051Z,86.6
2022-12-24T05:44:54.348Z,86.6
2022-12-24T05:46:10.633Z,86.2
2022-12-24T05:47:26.929Z,86.7
2022-12-24T05:48:42.250Z,86.8
2022-12-24T05:49:58.525Z,86.8
2022-12-24T05:51:14.826Z,87.2
2022-12-24T05:52:31.129Z,87.3
2022-12-24T05:53:47.416Z,87.4
2022-12-24T05:55:03.704Z,87.4
2022-12-24T05:56:20.006Z,87.6
2022-12-24T05:57:36.284Z,87.6
2022-12-24T05:58:52.594Z,87.7
2022-12-24T06:00:08.887Z,87
2022-12-24T06:01:25.167Z,87.4
2022-12-24T06:02:41.469Z,87.7
2022-12-24T06:03:57.757Z,87.2
2022-12-24T06:05:13.060Z,87
2022-12-24T06:06:29.353Z,86.7
2022-12-24T06:07:45.650Z,86.2
2022-12-24T06:09:01.954Z,86.3
2022-12-24T06:10:18.229Z,86.1
2022-12-24T06:11:34.527Z,86.3
2022-12-24T06:12:50.818Z,86.3
2022-12-24T06:14:07.121Z,85.9
2022-12-24T06:15:23.407Z,85.7
2022-12-24T06:16:39.708Z,85.9
2022-12-24T06:17:55.990Z,86
2022-12-24T06:19:12.288Z,86
2022-12-24T06:20:28.585Z,85.8
2022-12-24T06:21:43.893Z,85.8
2022-12-24T06:23:00.171Z,85.7
2022-12-24T06:24:16.470Z,85.7
2022-12-24T06:25:32.767Z,85.5
2022-12-24T06:26:49.055Z,85.5
2022-12-24T06:28:05.356Z,85.5
2022-12-24T06:29:21.652Z,85.3
2022-12-24T06:30:37.933Z,85.5
2022-12-24T06:31:54.234Z,85.3
2022-12-24T06:33:10.528Z,85.3
2022-12-24T06:34:26.819Z,85.5
2022-12-24T06:35:43.106Z,85.3
2022-12-24T06:36:59.398Z,85.3
2022-12-24T06:38:14.710Z,85.5
2022-12-24T06:39:30.999Z,85.3
2022-12-24T06:40:47.242Z,85.5
2022-12-24T06:42:03.484Z,85.5
2022-12-24T06:43:19.722Z,85.7
2022-12-24T06:44:35.962Z,85.5
2022-12-24T06:45:52.213Z,85.7
2022-12-24T06:47:08.456Z,85.8
2022-12-24T06:48:24.746Z,85.9
2022-12-24T06:49:40.983Z,85.5
2022-12-24T06:50:57.224Z,85.8
2022-12-24T06:52:13.477Z,85.5
2022-12-24T06:53:29.716Z,85.9
2022-12-24T06:54:44.954Z,85.4
2022-12-24T06:56:01.206Z,85.5
2022-12-24T06:57:17.439Z,85.5
2022-12-24T06:58:33.681Z,85.8
2022-12-24T06:59:49.924Z,85.6
2022-12-24T07:01:06.146Z,85.8
2022-12-24T07:02:22.402Z,86.1
2022-12-24T07:03:38.644Z,85.8
2022-12-24T07:04:54.878Z,85.9
2022-12-24T07:06:11.117Z,86
2022-12-24T07:07:27.354Z,86.2
2022-12-24T07:08:43.591Z,86.3
2022-12-24T07:09:59.836Z,86.3
2022-12-24T07:11:15.075Z,86.1
2022-12-24T07:12:31.319Z,86.1
2022-12-24T07:13:47.569Z,86
2022-12-24T07:15:03.804Z,85.9
2022-12-24T07:16:20.034Z,85.8
2022-12-24T07:17:36.268Z,86
2022-12-24T07:18:52.521Z,85.9
2022-12-24T07:20:08.745Z,86.1
2022-12-24T07:22:41.227Z,86.3
2022-12-24T07:23:57.465Z,85.8
2022-12-24T07:25:13.709Z,85.7
2022-12-24T07:26:29.945Z,85.7
2022-12-24T07:27:45.202Z,85.7
2022-12-24T07:29:01.444Z,85.9
2022-12-24T07:30:17.689Z,86
2022-12-24T07:31:33.926Z,85.7
2022-12-24T07:32:50.159Z,85.6
2022-12-24T07:34:06.388Z,85.5
2022-12-24T07:35:22.626Z,85.4
2022-12-24T07:36:38.880Z,85.7
2022-12-24T07:37:55.117Z,85.5
2022-12-24T07:39:11.352Z,85.6
2022-12-24T07:40:27.582Z,85.8
2022-12-24T07:41:43.830Z,85.9
2022-12-24T07:43:00.059Z,86.2
2022-12-24T07:44:15.321Z,86.3
2022-12-24T07:45:31.570Z,86.6
2022-12-24T07:46:47.810Z,86.6
2022-12-24T07:48:04.043Z,86.7
2022-12-24T07:49:20.289Z,87
2022-12-24T07:50:36.526Z,87.1
2022-12-24T07:51:52.751Z,87.3
2022-12-24T07:53:08.999Z,87.5
2022-12-24T07:54:25.244Z,87.7
2022-12-24T07:55:41.485Z,87.9
2022-12-24T07:56:57.713Z,87.9
2022-12-24T07:58:13.960Z,87.9
2022-12-24T07:59:30.192Z,87.8
2022-12-24T08:00:45.440Z,87.7
2022-12-24T08:02:01.678Z,87.6
2022-12-24T08:03:17.000Z,87.3
2022-12-24T08:04:34.137Z,87.4
2022-12-24T08:05:50.384Z,87.3
2022-12-24T08:07:06.609Z,87.1
2022-12-24T08:08:21.883Z,87.1
2022-12-24T08:09:38.116Z,86.7
2022-12-24T08:10:54.360Z,86.8
2022-12-24T08:12:10.597Z,86.7
2022-12-24T08:13:26.830Z,86.5
2022-12-24T08:14:43.073Z,86.3
2022-12-24T08:15:59.307Z,86.2
2022-12-24T08:17:15.543Z,86.2
2022-12-24T08:18:31.782Z,86
2022-12-24T08:19:48.019Z,85.6
2022-12-24T08:21:04.263Z,85.5
2022-12-24T08:22:20.509Z,85.4
2022-12-24T08:23:36.747Z,85.2
2022-12-24T08:24:52.006Z,85.2
2022-12-24T08:26:08.227Z,84.9
2022-12-24T08:27:24.480Z,84.7
2022-12-24T08:28:40.709Z,84.3
2022-12-24T08:29:56.943Z,83.8
2022-12-24T08:31:13.192Z,83.8
2022-12-24T08:32:29.433Z,83.1
2022-12-24T08:33:45.674Z,82.9
2022-12-24T08:35:01.918Z,82.7
2022-12-24T08:36:18.154Z,82.2
2022-12-24T08:37:34.394Z,81.3
2022-12-24T08:38:50.625Z,80.2
2022-12-24T08:40:06.860Z,79.5
2022-12-24T08:41:22.118Z,79.2
2022-12-24T08:42:38.350Z,79
2022-12-24T08:43:54.588Z,79.5
2022-12-24T08:45:10.844Z,80.1
2022-12-24T08:46:27.069Z,80.4
2022-12-24T08:47:43.301Z,81
2022-12-24T08:48:59.561Z,81
2022-12-24T08:50:15.786Z,81.2
2022-12-24T08:51:32.019Z,80.7
2022-12-24T08:52:48.260Z,79.9
2022-12-24T08:54:04.507Z,79.9
2022-12-24T08:55:20.745Z,79.7
2022-12-24T08:56:36.993Z,79.4
2022-12-24T08:57:52.233Z,79.9
2022-12-24T08:59:08.472Z,80.9
2022-12-24T09:00:24.708Z,81
2022-12-24T09:01:40.960Z,80.1
2022-12-24T09:02:57.189Z,79.7
2022-12-24T09:04:13.429Z,79.7
2022-12-24T09:05:29.668Z,78.6
2022-12-24T09:06:45.908Z,77.9
2022-12-24T09:08:02.147Z,77.1
2022-12-24T09:09:18.384Z,76.3
2022-12-24T09:10:34.632Z,75.5
2022-12-24T09:11:50.866Z,75.6
2022-12-24T09:13:07.104Z,75.5
2022-12-24T09:14:22.349Z,75
2022-12-24T09:15:38.599Z,74.7
2022-12-24T09:16:54.837Z,74.8
2022-12-24T09:18:11.083Z,75.6
2022-12-24T09:19:27.312Z,76.6
2022-12-24T09:20:43.545Z,78
2022-12-24T09:21:59.801Z,78.8
2022-12-24T09:23:16.020Z,78.1
2022-12-24T09:24:32.261Z,77
2022-12-24T09:25:48.515Z,76
2022-12-24T09:27:04.746Z,75.6
2022-12-24T09:28:20.987Z,75.5
2022-12-24T09:29:37.230Z,74.7
2022-12-24T09:30:52.471Z,74.4
2022-12-24T09:32:08.715Z,73.9
2022-12-24T09:33:24.961Z,73.7
2022-12-24T09:34:41.191Z,73.3
2022-12-24T09:35:57.436Z,73
2022-12-24T09:37:13.678Z,73.5
2022-12-24T09:38:29.907Z,73.8
2022-12-24T09:39:46.138Z,75.3
2022-12-24T09:41:02.379Z,76.7
2022-12-24T09:42:18.625Z,77.8
2022-12-24T09:43:34.857Z,78.8
2022-12-24T09:44:51.112Z,79.4
2022-12-24T09:46:07.331Z,79.8
2022-12-24T09:47:22.601Z,80.1
2022-12-24T09:48:38.823Z,80.7
2022-12-24T09:49:55.076Z,81
2022-12-24T09:51:11.320Z,81.5
2022-12-24T09:52:27.545Z,82.1
2022-12-24T09:53:43.793Z,81.9
2022-12-24T09:55:00.028Z,82.2
2022-12-24T09:56:16.267Z,82.2
2022-12-24T09:57:32.505Z,82.3
2022-12-24T09:58:48.733Z,82.5
2022-12-24T10:00:04.982Z,82.3
2022-12-24T10:01:21.212Z,82.7
2022-12-24T10:02:37.464Z,82.7
2022-12-24T10:03:52.706Z,82.7
2022-12-24T10:05:08.956Z,82.7
2022-12-24T10:06:25.198Z,82.7
2022-12-24T10:07:41.432Z,82.8
2022-12-24T10:08:57.666Z,82.8
2022-12-24T10:10:13.912Z,82.2
2022-12-24T10:11:30.153Z,82.1
2022-12-24T10:12:46.379Z,82.3
2022-12-24T10:14:02.636Z,82.4
2022-12-24T10:15:18.000Z,82.6
2022-12-24T10:16:35.100Z,82.5
2022-12-24T10:17:51.348Z,82.8
2022-12-24T10:19:07.590Z,82.7
2022-12-24T10:20:22.841Z,83.2
2022-12-24T10:21:39.073Z,82.8
2022-12-24T10:22:55.310Z,82.6
2022-12-24T10:24:11.553Z,82.3
2022-12-24T10:25:27.793Z,82.1
2022-12-24T10:26:44.037Z,82.1
2022-12-24T10:28:00.277Z,82.1
2022-12-24T10:29:16.503Z,82.2
2022-12-24T10:30:32.740Z,82.3
2022-12-24T10:31:48.986Z,82.4
2022-12-24T10:33:05.226Z,82.5
2022-12-24T10:34:21.467Z,82.9
2022-12-24T10:35:37.700Z,82.6
2022-12-24T10:36:52.960Z,82.8
2022-12-24T10:38:09.190Z,82.8
2022-12-24T10:39:25.438Z,82.5
2022-12-24T10:40:41.659Z,82.5
2022-12-24T10:41:57.915Z,82.7
2022-12-24T10:43:14.145Z,83.2
2022-12-24T10:44:30.385Z,83.7
2022-12-24T10:45:46.615Z,83.3
2022-12-24T10:47:02.870Z,83.3
2022-12-24T10:48:19.096Z,82.9
2022-12-24T10:50:51.580Z,82.9
2022-12-24T10:52:07.827Z,83
2022-12-24T10:53:23.078Z,83.1
2022-12-24T10:54:39.302Z,83.2
2022-12-24T10:55:55.543Z,82.8
2022-12-24T10:57:11.778Z,83.2
2022-12-24T10:58:28.031Z,82.7
2022-12-24T10:59:44.255Z,83.3
2022-12-24T11:01:00.514Z,83.9
2022-12-24T11:02:16.737Z,83.8
2022-12-24T11:03:32.982Z,83.4
2022-12-24T11:04:49.229Z,83.6
2022-12-24T11:06:05.462Z,83.6
2022-12-24T11:07:21.706Z,84.1
2022-12-24T11:08:37.943Z,84
2022-12-24T11:09:53.181Z,84.2
2022-12-24T11:11:09.428Z,84.4
2022-12-24T11:12:25.673Z,84.8
2022-12-24T11:13:41.903Z,85.5
2022-12-24T11:14:58.147Z,85.2
2022-12-24T11:16:14.375Z,85
2022-12-24T11:17:30.618Z,85
2022-12-24T11:18:46.865Z,85
2022-12-24T11:20:03.096Z,85.4
2022-12-24T11:21:19.348Z,85.4
2022-12-24T11:22:35.582Z,85.4
2022-12-24T11:23:51.815Z,85
2022-12-24T11:25:08.052Z,85
2022-12-24T11:26:23.310Z,84.6
2022-12-24T11:27:39.553Z,85
2022-12-24T11:28:55.792Z,84.7
2022-12-24T11:30:12.031Z,85.1
2022-12-24T11:31:28.269Z,85.4
2022-12-24T11:32:44.509Z,85.2
2022-12-24T11:34:00.747Z,84.8
2022-12-24T11:35:16.985Z,84.8
2022-12-24T11:36:33.212Z,85.4
2022-12-24T11:37:49.451Z,85.6
2022-12-24T11:39:05.696Z,85.6
2022-12-24T11:40:21.941Z,85.8
2022-12-24T11:41:38.164Z,85.6
2022-12-24T11:42:53.420Z,85.3
2022-12-24T11:44:09.659Z,85.1
2022-12-24T11:45:25.908Z,85.3
2022-12-24T11:46:42.140Z,84.8
2022-12-24T11:47:58.379Z,85.5
2022-12-24T11:49:14.616Z,84.7
2022-12-24T11:50:30.852Z,84.5
2022-12-24T11:51:47.091Z,84.6
2022-12-24T11:53:03.336Z,83.9
2022-12-24T11:54:19.570Z,83.3
2022-12-24T11:55:35.827Z,83
2022-12-24T11:56:52.059Z,82.4
2022-12-24T11:58:08.294Z,82.7
2022-12-24T11:59:23.550Z,81.8
2022-12-24T12:00:39.795Z,81.5
2022-12-24T12:01:56.028Z,80.7
2022-12-24T12:03:12.274Z,79.8
2022-12-24T12:04:28.503Z,79.6
2022-12-24T12:05:44.739Z,79.2
2022-12-24T12:07:00.981Z,79.6
2022-12-24T12:08:17.226Z,78.7
2022-12-24T12:09:33.452Z,78.2
2022-12-24T12:10:49.696Z,78.1
2022-12-24T12:12:05.932Z,79
2022-12-24T12:13:22.169Z,80.3
2022-12-24T12:14:38.415Z,79.5
2022-12-24T12:15:53.666Z,80.2
2022-12-24T12:17:09.897Z,80.9
2022-12-24T12:18:26.155Z,81.7
2022-12-24T12:19:42.390Z,81.9
2022-12-24T12:20:58.614Z,82.1
2022-12-24T12:22:14.870Z,82.2
2022-12-24T12:23:30.125Z,82.2
2022-12-24T12:24:46.353Z,82.1
2022-12-24T12:26:02.608Z,81.8
2022-12-24T12:27:18.841Z,82.2
2022-12-24T12:28:35.078Z,82.9
2022-12-24T12:29:51.315Z,82.4
2022-12-24T12:31:07.000Z,82.6
2022-12-24T12:32:23.795Z,82.6
2022-12-24T12:33:40.039Z,82.8
2022-12-24T12:34:56.267Z,83
2022-12-24T12:36:12.498Z,83.8
2022-12-24T12:37:28.743Z,83.5
2022-12-24T12:38:44.975Z,83
2022-12-24T12:40:00.245Z,83.1
2022-12-24T12:41:16.479Z,83
2022-12-24T12:42:32.713Z,82.8
2022-12-24T12:43:48.955Z,83.3
2022-12-24T12:45:05.199Z,83.1
2022-12-24T12:46:21.442Z,83
2022-12-24T12:47:37.679Z,82.6
2022-12-24T12:48:53.919Z,82.8
2022-12-24T12:50:10.148Z,82.9
2022-12-24T12:51:26.388Z,83.3
2022-12-24T12:52:42.627Z,82.9
2022-12-24T12:53:58.857Z,83.1
2022-12-24T12:55:15.105Z,83.6
2022-12-24T12:56:30.365Z,83.2
2022-12-24T12:57:46.606Z,83.2
2022-12-24T12:59:02.840Z,83.4
2022-12-24T13:00:19.083Z,83.8
2022-12-24T13:01:35.310Z,83
2022-12-24T13:02:51.561Z,82.1
2022-12-24T13:04:07.783Z,81.3
2022-12-24T13:05:24.023Z,81.3
2022-12-24T13:06:40.262Z,81.5
2022-12-24T13:07:56.498Z,81.6
2022-12-24T13:09:12.747Z,81.7
2022-12-24T13:10:28.977Z,81.5
2022-12-24T13:11:45.228Z,81.7
2022-12-24T13:13:00.477Z,81.5
2022-12-24T13:14:16.710Z,81.7
2022-12-24T13:15:32.955Z,81.8
2022-12-24T13:16:49.201Z,81.7
2022-12-24T13:18:05.424Z,81.6
2022-12-24T13:19:21.671Z,81.3
2022-12-24T13:20:37.910Z,81.5
2022-12-24T13:21:54.149Z,81.5
2022-12-24T13:23:10.386Z,81.6
2022-12-24T13:24:26.625Z,81.1
2022-12-24T13:25:42.872Z,81.2
2022-12-24T13:26:59.099Z,81.3
2022-12-24T13:28:15.346Z,82
2022-12-24T13:29:30.595Z,81.6
2022-12-24T13:30:46.843Z,82.3
2022-12-24T13:32:03.064Z,82.3
2022-12-24T13:33:19.311Z,82.9
2022-12-24T13:34:35.556Z,84
2022-12-24T13:35:51.790Z,84.4
2022-12-24T13:37:08.024Z,85
2022-12-24T13:38:24.268Z,86.4
2022-12-24T13:39:40.501Z,86.8
2022-12-24T13:40:56.742Z,86.8
2022-12-24T13:42:12.990Z,87.5
2022-12-24T13:43:29.217Z,88.4
2022-12-24T13:44:45.460Z,89
2022-12-24T13:46:00.718Z,89.1
2022-12-24T13:47:16.953Z,89.8
2022-12-24T13:48:33.180Z,91
2022-12-24T13:49:49.438Z,91.5
2022-12-24T13:51:05.663Z,91.5
2022-12-24T13:52:21.898Z,92.4
2022-12-24T13:53:38.146Z,92.8
2022-12-24T13:54:54.393Z,93.2
2022-12-24T13:56:10.618Z,93.8
2022-12-24T13:57:26.866Z,94.4
2022-12-24T13:58:43.105Z,95
2022-12-24T13:59:59.334Z,95.3
2022-12-24T14:01:15.585Z,95.8
2022-12-24T14:02:30.836Z,96.2
2022-12-24T14:03:47.000Z,96.3
2022-12-24T14:05:03.309Z,96.7
2022-12-24T14:06:19.550Z,96.5
2022-12-24T14:07:35.778Z,96.4
2022-12-24T14:08:52.024Z,96.2
2022-12-24T14:10:08.264Z,96.2
2022-12-24T14:11:24.513Z,95.8
2022-12-24T14:12:40.745Z,95.7
2022-12-24T14:13:56.971Z,95.9
2022-12-24T14:15:13.222Z,96.1
2022-12-24T14:16:29.454Z,95.6
2022-12-24T14:17:45.687Z,94.8
2022-12-24T14:19:00.948Z,94.4
2022-12-24T14:20:17.201Z,94.4
2022-12-24T14:21:33.430Z,93.8
2022-12-24T14:22:49.667Z,93.7
2022-12-24T14:24:05.912Z,93
2022-12-24T14:25:22.138Z,92.5
2022-12-24T14:26:38.377Z,92.2
2022-12-24T14:27:54.620Z,91.9
2022-12-24T14:29:10.855Z,91.3
2022-12-24T14:30:27.100Z,91.6
2022-12-24T14:31:43.347Z,92.2
2022-12-24T14:32:59.585Z,91.3
2022-12-24T14:34:15.814Z,91.6
2022-12-24T14:35:31.066Z,91.9
2022-12-24T14:36:47.310Z,92.4
2022-12-24T14:38:03.548Z,92.1
2022-12-24T14:39:19.791Z,92.2
2022-12-24T14:40:36.032Z,92
2022-12-24T14:41:52.263Z,92.9
2022-12-24T14:43:08.510Z,92.7
2022-12-24T14:44:24.745Z,92.1
2022-12-24T14:45:40.983Z,92.6
2022-12-24T14:46:57.216Z,91.9
2022-12-24T14:48:13.460Z,92
2022-12-24T14:49:29.690Z,91.8
2022-12-24T14:50:45.937Z,91.7
2022-12-24T14:52:01.197Z,92.4
2022-12-24T14:53:17.429Z,91.9
2022-12-24T14:54:33.667Z,91.8
2022-12-24T14:55:49.918Z,91.6
2022-12-24T14:57:06.148Z,91.4
2022-12-24T14:58:22.391Z,91
2022-12-24T14:59:38.624Z,90.6
2022-12-24T15:00:54.867Z,90.9
2022-12-24T15:02:11.107Z,90.4
2022-12-24T15:03:27.353Z,90.3
2022-12-24T15:04:43.579Z,89.8
2022-12-24T15:05:59.810Z,89.7
2022-12-24T15:07:16.055Z,89.5
2022-12-24T15:08:31.306Z,89.8
2022-12-24T15:09:47.547Z,89.8
2022-12-24T15:11:03.801Z,90.1
2022-12-24T15:12:20.031Z,89.9
2022-12-24T15:13:36.277Z,90.1
2022-12-24T15:14:52.507Z,90.3
2022-12-24T15:16:08.752Z,90.3
2022-12-24T15:17:24.992Z,90.4
2022-12-24T15:18:41.217Z,90.9
2022-12-24T15:19:57.464Z,90.5
2022-12-24T15:21:13.705Z,90.7
2022-12-24T15:22:29.951Z,90.8
2022-12-24T15:23:46.176Z,91.2
2022-12-24T15:25:01.437Z,91.3
2022-12-24T15:26:17.670Z,91.7
2022-12-24T15:27:33.919Z,91.8
2022-12-24T15:28:50.142Z,91.3
2022-12-24T15:30:06.384Z,91.2
2022-12-24T15:31:22.619Z,91.2
2022-12-24T15:32:38.868Z,91.7
2022-12-24T15:33:55.112Z,91.1
2022-12-24T15:35:11.354Z,91.5
2022-12-24T15:36:27.591Z,91.3
2022-12-24T15:37:43.829Z,91.6
2022-12-24T15:39:00.060Z,92.1
2022-12-24T15:40:16.293Z,92.2
2022-12-24T15:41:31.562Z,92.2
2022-12-24T15:42:47.858Z,92.4
2022-12-24T15:44:04.137Z,93
2022-12-24T15:45:20.436Z,92.9
2022-12-24T15:46:36.723Z,92.7
2022-12-24T15:47:53.032Z,92.9
2022-12-24T15:49:09.325Z,92.9
2022-12-24T15:50:25.601Z,93.3
2022-12-24T15:51:41.897Z,93.2
2022-12-24T15:52:58.190Z,93.3
2022-12-24T15:54:14.482Z,93.6
2022-12-24T15:55:30.772Z,93.4
2022-12-24T15:56:47.066Z,93.3
2022-12-24T15:58:02.381Z,93.4
2022-12-24T15:59:18.673Z,93.2
2022-12-24T16:00:34.961Z,93.2
2022-12-24T16:01:51.252Z,93.4
2022-12-24T16:03:07.541Z,93.3
2022-12-24T16:04:23.832Z,93.3
2022-12-24T16:05:40.129Z,93.2
2022-12-24T16:06:56.423Z,93
2022-12-24T16:08:12.717Z,92.9
2022-12-24T16:09:29.017Z,92.7
2022-12-24T16:10:45.304Z,92.3
2022-12-24T16:12:01.604Z,92.2
2022-12-24T16:13:17.897Z,92
2022-12-24T16:14:33.195Z,91.9
2022-12-24T16:15:49.494Z,91.8
2022-12-24T16:17:05.781Z,91.8
2022-12-24T16:18:22.071Z,91.7
2022-12-24T16:19:38.363Z,91.7
2022-12-24T16:20:54.669Z,91.7
2022-12-24T16:22:10.960Z,91.7
2022-12-24T16:23:27.250Z,91.6
2022-12-24T16:24:43.543Z,91.6
2022-12-24T16:27:16.122Z,91.6
2022-12-24T16:28:32.409Z,91.5
2022-12-24T16:29:48.000Z,91.5
2022-12-24T16:31:04.027Z,91.4
2022-12-24T16:32:20.305Z,91.5
2022-12-24T16:33:36.605Z,91.4
2022-12-24T16:34:52.894Z,91.3
2022-12-24T16:36:09.201Z,91.3
2022-12-24T16:37:25.495Z,91.2
2022-12-24T16:38:40.795Z,91.1
2022-12-24T16:39:57.089Z,91
2022-12-24T16:41:13.396Z,91
2022-12-24T16:42:29.678Z,90.9
2022-12-24T16:43:45.969Z,90.7
2022-12-24T16:45:02.275Z,90.6
2022-12-24T16:46:18.557Z,90.5
2022-12-24T16:47:34.850Z,90.5
2022-12-24T16:48:51.149Z,90.5
2022-12-24T16:50:07.429Z,90.5
2022-12-24T16:51:23.739Z,90.5
2022-12-24T16:52:40.024Z,90.5
2022-12-24T16:53:56.305Z,90.5
2022-12-24T16:55:11.631Z,90.5
2022-12-24T16:56:27.925Z,90.5
2022-12-24T16:57:44.217Z,90.5
2022-12-24T16:59:00.499Z,90.5
2022-12-24T17:00:16.797Z,90.5
2022-12-24T17:01:33.096Z,90.5
2022-12-24T17:02:49.391Z,90.5
2022-12-24T17:04:05.680Z,90.5
2022-12-24T17:05:21.968Z,90.4
2022-12-24T17:06:38.252Z,90.5